weather.gov     
National Weather Service

Terminal Aerodrome Forecast
NWS Homepage
This page is being discontinued on March 12, 2014.
The same data is available at this site. Please update your bookmarks.
Thank you, and we apologize for the inconvenience.
Please send an email to SR-SRH.Webmaster@noaa.gov with any concerns.


Current Version
Previous Version:    01  02  03  04  05  06  07  08  09  10  11  12  13  14  15  16  17  18  19  20  21  22  23  24  25  26  27  28  29  
[Printable]
432
FTUS41 KRNK 311740
TAFBCB
TAF
KBCB 311740Z 3118/0118 30003KT P6SM BKN045
     FM312100 22004KT P6SM VCSH BKN045
     FM010100 00000KT P6SM -SHRA SCT050 BKN100
     FM010900 VRB03KT 5SM -RA SCT015 OVC025
     FM011500 13001KT 4SM RA BR OVC008=




432
FTUS41 KRNK 311740
TAFBCB
TAF
KBCB 311740Z 3118/0118 30003KT P6SM BKN045
     FM312100 22004KT P6SM VCSH BKN045
     FM010100 00000KT P6SM -SHRA SCT050 BKN100
     FM010900 VRB03KT 5SM -RA SCT015 OVC025
     FM011500 13001KT 4SM RA BR OVC008=


U.S. Dept. of Commerce
NOAA National Weather Service
1325 East West Highway
Silver Spring, MD 20910
E-mail: w-nws.webmaster@noaa.gov
Page last modified: May 16, 2007
NATIONAL WEATHER SERVICE: for Safety, for Work, for Fun - FOR LIFE